Time;durP1;ratioP1;P1;durP2;ratioP2;P2;SDS_P1;SDS_P2;PMS_P1;PMS_P2;Temp;Humidity;BMP_temperature;BMP_pressure;BME280_temperature;BME280_humidity;BME280_pressure;Samples;Min_cycle;Max_cycle;Signal;HPM_P1;HPM_P2
2021/08/28 00:02:14;;;;;;;2.72;2.00;;;;;;;;;;5024507;28;20416;-74
2021/08/28 00:04:40;;;;;;;2.80;2.00;;;;;;;;;;5023145;28;20042;-74
2021/08/28 00:07:06;;;;;;;3.60;2.05;;;;;;;;;;5017843;28;20061;-76
2021/08/28 00:09:33;;;;;;;3.28;2.22;;;;;;;;;;5033636;28;20053;-76
2021/08/28 00:11:59;;;;;;;2.85;1.92;;;;;;;;;;5013083;28;20062;-76
2021/08/28 00:14:26;;;;;;;2.95;2.30;;;;;;;;;;5025274;28;20497;-76
2021/08/28 00:16:52;;;;;;;3.10;2.30;;;;;;;;;;5020431;28;20072;-74
2021/08/28 00:19:18;;;;;;;3.05;2.10;;;;;;;;;;5021486;28;20072;-74
2021/08/28 00:21:45;;;;;;;2.70;1.90;;;;;;;;;;5029719;28;20045;-76
2021/08/28 00:24:11;;;;;;;3.10;2.00;;;;;;;;;;5021829;28;20026;-76
2021/08/28 00:26:39;;;;;;;3.78;2.08;;;;;;;;;;5018895;28;20519;-74
2021/08/28 00:29:06;;;;;;;4.18;2.25;;;;;;;;;;5020157;28;20107;-74
2021/08/28 00:31:33;;;;;;;3.20;2.17;;;;;;;;;;5019142;28;20509;-75
2021/08/28 00:33:59;;;;;;;3.55;2.22;;;;;;;;;;5021473;28;20076;-76
2021/08/28 00:36:25;;;;;;;2.67;1.90;;;;;;;;;;5018196;28;20195;-75
2021/08/28 00:38:52;;;;;;;3.58;2.00;;;;;;;;;;5022238;28;20069;-76
2021/08/28 00:41:18;;;;;;;3.45;1.90;;;;;;;;;;5024106;28;20634;-75
2021/08/28 00:43:45;;;;;;;2.83;1.77;;;;;;;;;;5022722;28;20042;-75
2021/08/28 00:46:11;;;;;;;3.00;1.80;;;;;;;;;;5020669;28;20114;-74
2021/08/28 00:48:37;;;;;;;2.85;1.90;;;;;;;;;;5014465;28;20508;-75
2021/08/28 00:51:04;;;;;;;2.80;2.10;;;;;;;;;;5026809;28;20064;-74
2021/08/28 00:53:31;;;;;;;3.10;1.85;;;;;;;;;;5018475;28;20068;-74
2021/08/28 00:55:57;;;;;;;2.40;1.77;;;;;;;;;;5025952;28;20060;-75
2021/08/28 00:58:24;;;;;;;3.25;1.80;;;;;;;;;;5019073;28;20065;-75
2021/08/28 01:00:54;;;;;;;2.38;1.63;;;;;;;;;;5019606;28;20079;-75
2021/08/28 01:03:22;;;;;;;2.63;1.70;;;;;;;;;;5020852;28;20037;-75
2021/08/28 01:05:49;;;;;;;2.90;1.70;;;;;;;;;;5027924;28;20072;-75
2021/08/28 01:08:21;;;;;;;3.78;1.80;;;;;;;;;;5030064;28;20073;-74
2021/08/28 01:10:53;;;;;;;2.90;1.80;;;;;;;;;;5025601;28;20431;-76
2021/08/28 01:13:19;;;;;;;2.75;1.95;;;;;;;;;;5033402;28;20090;-74
2021/08/28 01:15:48;;;;;;;3.15;1.90;;;;;;;;;;5030791;28;20065;-75
2021/08/28 01:18:15;;;;;;;1.90;1.45;;;;;;;;;;5021923;28;20501;-75
2021/08/28 01:20:56;;;;;;;2.97;1.98;;;;;;;;;;5019579;28;20072;-75
2021/08/28 01:23:24;;;;;;;2.80;1.65;;;;;;;;;;5023936;28;20579;-76
2021/08/28 01:25:53;;;;;;;2.35;1.60;;;;;;;;;;5028104;28;20149;-76
2021/08/28 01:28:20;;;;;;;3.08;1.90;;;;;;;;;;5029877;28;20518;-75
2021/08/28 01:30:47;;;;;;;2.78;1.50;;;;;;;;;;5030922;28;20068;-74
2021/08/28 01:33:14;;;;;;;2.38;1.60;;;;;;;;;;5029979;28;20057;-76
2021/08/28 01:35:42;;;;;;;2.92;1.77;;;;;;;;;;5016156;28;20070;-75
2021/08/28 01:38:10;;;;;;;2.85;1.70;;;;;;;;;;5026347;28;20037;-75
2021/08/28 01:40:37;;;;;;;2.58;1.42;;;;;;;;;;5026966;28;20124;-75
2021/08/28 01:43:04;;;;;;;2.67;1.52;;;;;;;;;;5013177;28;20061;-75
2021/08/28 01:45:32;;;;;;;2.63;1.73;;;;;;;;;;5031431;28;20509;-75
2021/08/28 01:47:58;;;;;;;2.47;1.50;;;;;;;;;;5017925;28;20594;-74
2021/08/28 01:50:27;;;;;;;3.10;1.60;;;;;;;;;;5027675;28;20065;-74
2021/08/28 01:52:53;;;;;;;2.40;1.60;;;;;;;;;;5021505;28;20122;-75
2021/08/28 01:55:19;;;;;;;2.63;1.63;;;;;;;;;;5015412;28;20076;-76
2021/08/28 01:57:46;;;;;;;2.15;1.52;;;;;;;;;;5022948;28;20065;-76
2021/08/28 02:00:13;;;;;;;2.03;1.42;;;;;;;;;;5030127;28;21355;-75
2021/08/28 02:02:39;;;;;;;2.40;1.40;;;;;;;;;;5030405;28;20096;-76
2021/08/28 02:05:06;;;;;;;2.63;1.42;;;;;;;;;;5032878;28;20131;-76
2021/08/28 02:07:38;;;;;;;2.65;1.45;;;;;;;;;;5028509;28;20697;-76
2021/08/28 02:10:07;;;;;;;2.30;1.20;;;;;;;;;;5015074;28;20056;-76
2021/08/28 02:12:35;;;;;;;2.83;1.50;;;;;;;;;;5024752;28;20061;-76
2021/08/28 02:15:06;;;;;;;2.30;1.50;;;;;;;;;;5031253;28;20665;-75
2021/08/28 02:17:33;;;;;;;;;;;;;;;;;;5018459;28;20062;-75
2021/08/28 02:20:03;;;;;;;2.47;1.40;;;;;;;;;;5021510;28;20002;-75
2021/08/28 02:22:31;;;;;;;1.90;1.33;;;;;;;;;;5015906;28;20061;-76
2021/08/28 02:25:01;;;;;;;1.92;1.23;;;;;;;;;;5025491;28;20136;-75
2021/08/28 02:27:28;;;;;;;2.50;1.40;;;;;;;;;;5027936;28;20049;-76
2021/08/28 02:29:56;;;;;;;2.92;1.40;;;;;;;;;;5023309;28;20083;-75
2021/08/28 02:32:23;;;;;;;2.20;1.25;;;;;;;;;;5023896;28;20110;-75
2021/08/28 02:34:51;;;;;;;2.47;1.08;;;;;;;;;;5015690;28;20119;-75
2021/08/28 02:37:18;;;;;;;2.30;1.27;;;;;;;;;;5013240;28;20072;-76
2021/08/28 02:39:45;;;;;;;1.95;1.10;;;;;;;;;;5023140;28;20111;-75
2021/08/28 02:42:12;;;;;;;2.00;1.20;;;;;;;;;;5016845;28;21228;-75
2021/08/28 02:44:39;;;;;;;1.83;1.10;;;;;;;;;;5017986;28;20525;-76
2021/08/28 02:47:06;;;;;;;1.50;0.95;;;;;;;;;;5025766;28;20056;-74
2021/08/28 02:49:34;;;;;;;1.80;1.10;;;;;;;;;;5018919;28;20064;-74
2021/08/28 02:52:00;;;;;;;1.75;1.02;;;;;;;;;;5021913;28;20092;-74
2021/08/28 02:54:28;;;;;;;1.67;1.00;;;;;;;;;;5014907;28;20049;-74
2021/08/28 02:56:55;;;;;;;1.65;1.00;;;;;;;;;;5025151;28;20488;-74
2021/08/28 02:59:24;;;;;;;1.77;1.10;;;;;;;;;;5028716;28;20111;-75
2021/08/28 03:01:50;;;;;;;3.88;1.20;;;;;;;;;;5024227;28;20069;-74
2021/08/28 03:04:18;;;;;;;1.80;1.20;;;;;;;;;;5022534;28;21731;-74
2021/08/28 03:06:46;;;;;;;2.00;1.00;;;;;;;;;;5015274;28;20073;-74
2021/08/28 03:09:13;;;;;;;2.08;1.00;;;;;;;;;;5024547;28;20542;-75
2021/08/28 03:11:39;;;;;;;1.75;1.08;;;;;;;;;;5025242;28;20065;-76
2021/08/28 03:14:06;;;;;;;1.85;0.77;;;;;;;;;;5018542;28;20073;-75
2021/08/28 03:16:32;;;;;;;1.52;1.00;;;;;;;;;;5026884;28;20456;-76
2021/08/28 03:18:59;;;;;;;1.77;1.08;;;;;;;;;;5015930;28;20104;-75
2021/08/28 03:21:27;;;;;;;1.20;0.80;;;;;;;;;;5018544;28;20095;-75
2021/08/28 03:23:56;;;;;;;0.98;0.68;;;;;;;;;;5029897;28;20069;-75
2021/08/28 03:26:23;;;;;;;1.92;0.80;;;;;;;;;;5017165;28;20045;-76
2021/08/28 03:28:52;;;;;;;1.90;1.20;;;;;;;;;;5021948;28;20061;-76
2021/08/28 03:31:18;;;;;;;1.45;0.90;;;;;;;;;;5029024;28;20057;-75
2021/08/28 03:33:46;;;;;;;2.20;1.00;;;;;;;;;;5013822;28;20061;-75
2021/08/28 03:36:13;;;;;;;1.33;0.80;;;;;;;;;;5019569;28;21400;-75
2021/08/28 03:38:39;;;;;;;1.50;0.82;;;;;;;;;;5021196;28;20115;-74
2021/08/28 03:41:06;;;;;;;1.15;0.80;;;;;;;;;;5011652;28;20088;-74
2021/08/28 03:43:33;;;;;;;1.17;0.73;;;;;;;;;;5013782;28;20060;-74
2021/08/28 03:46:00;;;;;;;1.63;1.00;;;;;;;;;;5018389;28;20114;-74
2021/08/28 03:48:26;;;;;;;0.93;0.70;;;;;;;;;;5024443;28;20072;-75
2021/08/28 03:50:54;;;;;;;1.58;0.90;;;;;;;;;;5025222;28;20072;-75
2021/08/28 03:53:20;;;;;;;1.25;0.90;;;;;;;;;;5013597;28;20072;-75
2021/08/28 03:55:56;;;;;;;1.50;0.70;;;;;;;;;;5017148;28;20061;-78
2021/08/28 03:58:28;;;;;;;1.27;0.80;;;;;;;;;;4996116;28;20026;-75
2021/08/28 04:00:54;;;;;;;1.20;0.90;;;;;;;;;;4998986;28;20097;-75
2021/08/28 04:03:21;;;;;;;1.10;0.70;;;;;;;;;;5001139;28;20057;-76
2021/08/28 04:05:47;;;;;;;1.13;0.60;;;;;;;;;;4998039;28;20614;-77
2021/08/28 04:08:14;;;;;;;1.40;0.80;;;;;;;;;;5011282;28;20116;-75
2021/08/28 04:10:40;;;;;;;1.77;0.98;;;;;;;;;;4990909;28;20128;-75
2021/08/28 04:13:07;;;;;;;0.75;0.60;;;;;;;;;;5004017;28;20132;-75
2021/08/28 04:15:33;;;;;;;1.33;0.70;;;;;;;;;;5031603;28;20454;-74
2021/08/28 04:17:59;;;;;;;1.48;0.70;;;;;;;;;;4995642;28;20061;-74
2021/08/28 04:20:26;;;;;;;1.42;0.80;;;;;;;;;;5024321;28;20446;-74
2021/08/28 04:22:52;;;;;;;1.55;0.70;;;;;;;;;;5000313;28;20096;-76
2021/08/28 04:25:18;;;;;;;1.02;0.60;;;;;;;;;;4987568;28;20453;-74
2021/08/28 04:27:45;;;;;;;0.73;0.45;;;;;;;;;;5007420;28;20108;-74
2021/08/28 04:30:12;;;;;;;0.90;0.60;;;;;;;;;;4997253;28;20057;-74
2021/08/28 04:32:38;;;;;;;1.55;0.77;;;;;;;;;;5044614;28;20060;-74
2021/08/28 04:35:04;;;;;;;0.90;0.63;;;;;;;;;;5010990;28;20077;-75
2021/08/28 04:37:31;;;;;;;1.52;0.60;;;;;;;;;;5017356;28;20066;-75
2021/08/28 04:39:57;;;;;;;1.25;0.50;;;;;;;;;;4994083;28;20061;-76
2021/08/28 04:42:24;;;;;;;1.33;0.70;;;;;;;;;;4998441;28;20108;-74
2021/08/28 04:44:53;;;;;;;1.88;0.80;;;;;;;;;;5003697;28;20054;-74
2021/08/28 04:47:20;;;;;;;1.13;0.60;;;;;;;;;;5000987;28;20058;-75
2021/08/28 04:49:47;;;;;;;1.02;0.65;;;;;;;;;;5000246;28;20092;-78
2021/08/28 04:52:14;;;;;;;1.05;0.63;;;;;;;;;;4999338;28;20384;-75
2021/08/28 04:54:41;;;;;;;0.90;0.50;;;;;;;;;;5000041;28;20057;-75
2021/08/28 04:57:07;;;;;;;1.73;0.73;;;;;;;;;;5001953;28;20057;-75
2021/08/28 04:59:34;;;;;;;0.90;0.60;;;;;;;;;;4995923;28;20116;-76
2021/08/28 05:02:01;;;;;;;1.13;0.65;;;;;;;;;;5003545;28;20065;-74
2021/08/28 05:04:27;;;;;;;2.35;0.50;;;;;;;;;;5000523;28;20088;-75
2021/08/28 05:06:54;;;;;;;0.95;0.60;;;;;;;;;;4994157;28;20164;-76
2021/08/28 05:09:20;;;;;;;1.45;0.60;;;;;;;;;;5001858;28;20709;-76
2021/08/28 05:11:47;;;;;;;0.73;0.50;;;;;;;;;;4999519;28;20065;-75
2021/08/28 05:14:14;;;;;;;3.00;0.68;;;;;;;;;;4999477;28;21543;-74
2021/08/28 05:16:40;;;;;;;0.73;0.47;;;;;;;;;;4997959;28;20072;-72
2021/08/28 05:19:06;;;;;;;1.27;0.55;;;;;;;;;;4996662;28;20068;-73
2021/08/28 05:21:33;;;;;;;1.77;0.60;;;;;;;;;;5000158;28;20074;-74
2021/08/28 05:23:59;;;;;;;1.13;0.63;;;;;;;;;;5002960;28;20061;-74
2021/08/28 05:26:26;;;;;;;1.98;0.63;;;;;;;;;;5015095;28;20057;-73
2021/08/28 05:28:52;;;;;;;1.02;0.60;;;;;;;;;;5016713;28;20079;-73
2021/08/28 05:31:19;;;;;;;2.45;0.50;;;;;;;;;;5020830;28;20064;-73
2021/08/28 05:33:45;;;;;;;1.17;0.50;;;;;;;;;;5015424;28;20061;-74
2021/08/28 05:36:12;;;;;;;1.25;0.70;;;;;;;;;;5015322;28;20080;-73
2021/08/28 05:38:38;;;;;;;2.08;0.60;;;;;;;;;;5013052;28;20521;-75
2021/08/28 05:41:06;;;;;;;3.30;0.60;;;;;;;;;;5014601;28;20082;-73
2021/08/28 05:43:32;;;;;;;1.42;0.63;;;;;;;;;;5019009;28;20524;-72
2021/08/28 05:45:58;;;;;;;1.23;0.60;;;;;;;;;;5018887;28;20057;-72
2021/08/28 05:48:25;;;;;;;0.90;0.60;;;;;;;;;;5017037;28;20065;-73
2021/08/28 05:50:51;;;;;;;1.75;0.50;;;;;;;;;;5017415;28;20064;-73
2021/08/28 05:53:18;;;;;;;0.93;0.50;;;;;;;;;;5026615;28;20069;-73
2021/08/28 05:55:44;;;;;;;0.73;0.50;;;;;;;;;;5016934;28;20119;-73
2021/08/28 05:58:10;;;;;;;2.45;0.68;;;;;;;;;;5026272;28;20056;-74
2021/08/28 06:00:37;;;;;;;2.03;0.70;;;;;;;;;;5023821;28;20493;-74
2021/08/28 06:03:03;;;;;;;1.25;0.63;;;;;;;;;;5010249;28;20076;-74
2021/08/28 06:05:29;;;;;;;1.20;0.60;;;;;;;;;;5015221;28;20060;-73
2021/08/28 06:07:56;;;;;;;1.73;0.68;;;;;;;;;;5019603;28;20462;-74
2021/08/28 06:10:22;;;;;;;2.08;0.77;;;;;;;;;;5012513;28;20065;-74
2021/08/28 06:12:49;;;;;;;0.70;0.47;;;;;;;;;;5018111;28;20156;-75
2021/08/28 06:15:15;;;;;;;1.63;0.65;;;;;;;;;;5030692;28;20054;-74
2021/08/28 06:17:42;;;;;;;2.05;0.57;;;;;;;;;;5017583;28;20044;-73
2021/08/28 06:20:09;;;;;;;0.75;0.40;;;;;;;;;;5011894;28;20057;-73
2021/08/28 06:22:35;;;;;;;1.48;0.70;;;;;;;;;;5013360;28;20065;-74
2021/08/28 06:25:02;;;;;;;1.15;0.80;;;;;;;;;;5015656;28;20069;-74
2021/08/28 06:27:28;;;;;;;1.50;0.70;;;;;;;;;;5029293;28;20098;-73
2021/08/28 06:29:54;;;;;;;1.92;0.68;;;;;;;;;;5017019;28;20076;-74
2021/08/28 06:32:21;;;;;;;1.20;0.60;;;;;;;;;;5023247;28;20073;-73
2021/08/28 06:34:47;;;;;;;1.38;0.70;;;;;;;;;;5026676;28;20049;-74
2021/08/28 06:37:14;;;;;;;0.88;0.60;;;;;;;;;;5022660;28;20065;-75
2021/08/28 06:39:40;;;;;;;1.77;0.80;;;;;;;;;;5016832;28;20060;-75
2021/08/28 06:42:06;;;;;;;1.77;0.70;;;;;;;;;;5021991;28;20068;-74
2021/08/28 06:44:33;;;;;;;2.17;0.70;;;;;;;;;;5024975;28;20049;-74
2021/08/28 06:46:59;;;;;;;1.48;0.77;;;;;;;;;;5033576;28;20507;-74
2021/08/28 06:49:25;;;;;;;1.38;0.77;;;;;;;;;;5011321;28;20091;-74
2021/08/28 06:51:53;;;;;;;0.80;0.52;;;;;;;;;;5024048;28;20068;-73
2021/08/28 06:54:20;;;;;;;1.55;0.60;;;;;;;;;;5015782;28;20038;-75
2021/08/28 06:56:46;;;;;;;1.30;0.70;;;;;;;;;;5020170;28;20068;-73
2021/08/28 06:59:13;;;;;;;1.15;0.70;;;;;;;;;;5021245;28;20570;-74
2021/08/28 07:01:39;;;;;;;1.33;0.68;;;;;;;;;;5033217;28;20061;-74
2021/08/28 07:04:06;;;;;;;2.60;0.80;;;;;;;;;;5009065;28;20157;-74
2021/08/28 07:06:32;;;;;;;2.30;0.90;;;;;;;;;;5016343;28;20501;-74
2021/08/28 07:09:02;;;;;;;3.17;0.73;;;;;;;;;;5023253;28;20057;-74
2021/08/28 07:11:28;;;;;;;1.80;0.80;;;;;;;;;;5022238;28;20135;-74
2021/08/28 07:13:54;;;;;;;1.33;0.88;;;;;;;;;;5017655;28;20057;-74
2021/08/28 07:16:25;;;;;;;2.38;0.80;;;;;;;;;;5031857;28;20134;-75
2021/08/28 07:18:51;;;;;;;1.33;0.80;;;;;;;;;;5019926;28;20056;-75
2021/08/28 07:21:18;;;;;;;1.42;0.65;;;;;;;;;;5022020;28;20046;-75
2021/08/28 07:23:46;;;;;;;1.63;0.75;;;;;;;;;;5023383;28;20084;-74
2021/08/28 07:26:13;;;;;;;1.27;0.68;;;;;;;;;;5018546;28;20060;-73
2021/08/28 07:28:40;;;;;;;1.17;0.70;;;;;;;;;;5021393;28;20071;-74
2021/08/28 07:31:07;;;;;;;1.65;0.80;;;;;;;;;;5018417;28;20060;-73
2021/08/28 07:33:34;;;;;;;1.50;0.70;;;;;;;;;;5028512;28;20053;-74
2021/08/28 07:36:00;;;;;;;1.40;0.90;;;;;;;;;;5017873;28;20073;-73
2021/08/28 07:38:27;;;;;;;1.20;0.80;;;;;;;;;;5031783;28;20061;-73
2021/08/28 07:40:54;;;;;;;1.50;0.90;;;;;;;;;;5024522;28;20065;-74
2021/08/28 07:43:20;;;;;;;1.45;0.80;;;;;;;;;;5011791;28;20466;-74
2021/08/28 07:45:46;;;;;;;1.75;1.10;;;;;;;;;;5015314;28;20065;-73
2021/08/28 07:48:13;;;;;;;6.13;1.00;;;;;;;;;;5020084;28;21193;-72
2021/08/28 07:50:39;;;;;;;1.17;0.80;;;;;;;;;;5017043;28;20057;-73
2021/08/28 07:53:06;;;;;;;1.83;0.73;;;;;;;;;;5010463;28;20049;-73
2021/08/28 07:55:32;;;;;;;1.50;0.80;;;;;;;;;;5020636;28;20072;-74
2021/08/28 07:57:58;;;;;;;1.65;1.00;;;;;;;;;;5015727;28;20064;-74
2021/08/28 08:00:25;;;;;;;1.40;0.85;;;;;;;;;;5015164;28;20141;-74
2021/08/28 08:02:51;;;;;;;1.35;0.88;;;;;;;;;;5015011;28;20061;-75
2021/08/28 08:05:17;;;;;;;1.35;0.90;;;;;;;;;;5014991;28;20068;-74
2021/08/28 08:07:44;;;;;;;1.70;1.00;;;;;;;;;;5013097;28;20062;-75
2021/08/28 08:10:10;;;;;;;1.25;0.80;;;;;;;;;;5021193;28;20508;-73
2021/08/28 08:12:37;;;;;;;3.00;0.90;;;;;;;;;;5013855;28;20058;-73
2021/08/28 08:15:03;;;;;;;1.50;0.90;;;;;;;;;;5010829;28;20080;-74
2021/08/28 08:17:30;;;;;;;1.95;0.73;;;;;;;;;;5018185;28;20091;-75
2021/08/28 08:19:56;;;;;;;1.80;0.98;;;;;;;;;;5011508;28;20693;-73
2021/08/28 08:22:23;;;;;;;1.33;0.88;;;;;;;;;;5016967;28;20509;-74
2021/08/28 08:24:49;;;;;;;2.00;1.20;;;;;;;;;;5018653;28;20037;-74
2021/08/28 08:27:16;;;;;;;2.90;1.10;;;;;;;;;;5015295;28;20046;-73
2021/08/28 08:29:42;;;;;;;1.77;0.90;;;;;;;;;;5019642;28;20057;-73
2021/08/28 08:32:09;;;;;;;2.50;1.10;;;;;;;;;;5012225;28;20508;-73
2021/08/28 08:34:35;;;;;;;2.03;0.88;;;;;;;;;;5013743;28;20072;-72
2021/08/28 08:37:02;;;;;;;2.30;0.90;;;;;;;;;;5013890;28;20060;-74
2021/08/28 08:39:28;;;;;;;1.40;0.90;;;;;;;;;;5023956;28;20064;-73
2021/08/28 08:41:55;;;;;;;1.80;1.08;;;;;;;;;;5023005;28;20069;-73
2021/08/28 08:44:22;;;;;;;1.15;0.65;;;;;;;;;;5021464;28;20064;-74
2021/08/28 08:46:49;;;;;;;1.92;0.80;;;;;;;;;;5022850;28;20108;-75
2021/08/28 08:49:15;;;;;;;1.48;0.80;;;;;;;;;;5015730;28;20060;-74
2021/08/28 08:51:42;;;;;;;2.88;0.93;;;;;;;;;;5028253;28;20587;-73
2021/08/28 08:54:09;;;;;;;1.63;0.90;;;;;;;;;;5025198;28;20079;-73
2021/08/28 08:56:36;;;;;;;1.92;1.00;;;;;;;;;;5016656;28;20062;-73
2021/08/28 08:59:03;;;;;;;1.52;0.90;;;;;;;;;;5012780;28;20057;-74
2021/08/28 09:01:29;;;;;;;3.33;1.00;;;;;;;;;;5021830;28;20057;-73
2021/08/28 09:03:57;;;;;;;2.88;0.90;;;;;;;;;;5011263;28;20461;-74
2021/08/28 09:06:23;;;;;;;1.42;0.98;;;;;;;;;;5016732;28;20069;-74
2021/08/28 09:08:50;;;;;;;1.42;0.75;;;;;;;;;;5015442;28;20061;-74
2021/08/28 09:11:19;;;;;;;1.52;0.80;;;;;;;;;;5021447;28;20072;-74
2021/08/28 09:13:46;;;;;;;1.85;0.98;;;;;;;;;;5022353;28;20120;-74
2021/08/28 09:16:27;;;;;;;1.85;1.00;;;;;;;;;;5017114;28;20065;-74
2021/08/28 09:18:54;;;;;;;1.40;0.88;;;;;;;;;;5019141;28;20119;-76
2021/08/28 09:21:23;;;;;;;1.45;0.93;;;;;;;;;;5023076;28;20040;-77
2021/08/28 09:23:50;;;;;;;2.00;0.95;;;;;;;;;;5021165;28;20066;-77
2021/08/28 09:26:27;;;;;;;1.70;1.05;;;;;;;;;;5024984;28;20045;-76
2021/08/28 09:28:55;;;;;;;1.48;0.80;;;;;;;;;;5022529;28;20052;-77
2021/08/28 09:31:36;;;;;;;1.92;1.00;;;;;;;;;;5021204;28;20442;-78
2021/08/28 09:34:21;;;;;;;1.95;1.00;;;;;;;;;;5031357;28;20022;-79
2021/08/28 09:36:53;;;;;;;2.50;1.52;;;;;;;;;;5032362;28;20504;-78
2021/08/28 09:39:44;;;;;;;1.92;1.10;;;;;;;;;;5045899;28;20042;-77
2021/08/28 09:42:17;;;;;;;1.70;0.85;;;;;;;;;;5031987;28;20054;-76
2021/08/28 09:44:45;;;;;;;1.55;0.70;;;;;;;;;;5036895;28;20133;-75
2021/08/28 09:47:12;;;;;;;2.40;1.10;;;;;;;;;;5025185;28;20117;-76
2021/08/28 09:49:45;;;;;;;1.90;1.13;;;;;;;;;;5019842;28;20066;-76
2021/08/28 09:52:15;;;;;;;1.88;0.90;;;;;;;;;;5023016;28;20049;-76
2021/08/28 09:54:42;;;;;;;1.05;0.65;;;;;;;;;;5022408;28;20113;-77
2021/08/28 09:57:09;;;;;;;1.98;0.80;;;;;;;;;;5015554;28;20119;-79
2021/08/28 09:59:35;;;;;;;3.65;0.77;;;;;;;;;;5023511;28;20065;-79
2021/08/28 10:02:10;;;;;;;3.40;1.00;;;;;;;;;;5021388;28;20061;-80
2021/08/28 10:04:52;;;;;;;1.90;0.90;;;;;;;;;;5024115;28;20057;-75
2021/08/28 10:07:20;;;;;;;1.90;1.00;;;;;;;;;;5030601;28;20691;-77
2021/08/28 10:09:47;;;;;;;1.85;1.17;;;;;;;;;;5036524;28;20041;-79
2021/08/28 10:12:14;;;;;;;3.13;1.10;;;;;;;;;;5016277;28;20037;-75
2021/08/28 10:14:41;;;;;;;1.70;1.08;;;;;;;;;;5035901;28;20456;-74
2021/08/28 10:17:07;;;;;;;1.85;0.93;;;;;;;;;;5031431;28;20087;-78
2021/08/28 10:19:35;;;;;;;1.58;0.98;;;;;;;;;;5026236;28;20074;-78
2021/08/28 10:22:01;;;;;;;1.58;1.00;;;;;;;;;;5034767;28;20417;-77
2021/08/28 10:24:28;;;;;;;2.17;1.25;;;;;;;;;;5032129;28;20025;-76
2021/08/28 10:26:54;;;;;;;1.67;0.90;;;;;;;;;;5022696;28;20044;-75
2021/08/28 10:29:21;;;;;;;2.30;1.05;;;;;;;;;;5024786;28;20030;-75
2021/08/28 10:31:47;;;;;;;2.03;1.02;;;;;;;;;;5015851;28;20065;-76
2021/08/28 10:34:15;;;;;;;1.42;0.88;;;;;;;;;;5028552;28;20033;-76
2021/08/28 10:36:42;;;;;;;1.90;1.05;;;;;;;;;;5036430;28;20072;-78
2021/08/28 10:39:08;;;;;;;2.20;1.00;;;;;;;;;;5031897;28;20037;-77
2021/08/28 10:41:36;;;;;;;1.80;0.90;;;;;;;;;;5029061;28;20095;-77
2021/08/28 10:44:03;;;;;;;4.97;1.00;;;;;;;;;;5030153;28;20041;-76
2021/08/28 10:46:30;;;;;;;1.60;0.90;;;;;;;;;;5026678;28;20034;-75
2021/08/28 10:48:58;;;;;;;1.67;0.80;;;;;;;;;;5030940;28;20273;-77
2021/08/28 10:51:31;;;;;;;1.73;1.00;;;;;;;;;;5012958;28;20046;-76
2021/08/28 10:54:01;;;;;;;2.10;1.00;;;;;;;;;;5010559;28;20041;-76
2021/08/28 10:56:36;;;;;;;1.75;0.90;;;;;;;;;;5024457;28;20489;-77
2021/08/28 10:59:16;;;;;;;1.83;1.15;;;;;;;;;;5021767;28;20034;-75
2021/08/28 11:01:53;;;;;;;2.40;0.90;;;;;;;;;;5030025;28;20132;-76
2021/08/28 11:04:33;;;;;;;1.60;1.00;;;;;;;;;;5030011;28;20099;-78
2021/08/28 11:07:18;;;;;;;2.05;1.10;;;;;;;;;;5029171;28;20041;-78
2021/08/28 11:10:03;;;;;;;1.85;1.10;;;;;;;;;;5029925;28;20436;-81
2021/08/28 11:12:30;;;;;;;2.33;1.10;;;;;;;;;;5024754;28;20981;-77
2021/08/28 11:14:56;;;;;;;1.98;1.10;;;;;;;;;;5026259;28;20888;-75
2021/08/28 11:17:36;;;;;;;1.67;1.10;;;;;;;;;;5027078;28;20504;-77
2021/08/28 11:20:04;;;;;;;1.70;1.00;;;;;;;;;;5029742;28;20130;-74
2021/08/28 11:22:37;;;;;;;2.47;0.90;;;;;;;;;;5021600;28;20534;-77
2021/08/28 11:25:06;;;;;;;3.13;1.20;;;;;;;;;;5022251;28;20095;-79
2021/08/28 11:27:37;;;;;;;2.63;1.15;;;;;;;;;;5030096;28;20040;-78
2021/08/28 11:30:03;;;;;;;7.22;1.25;;;;;;;;;;5038830;28;20396;-78
2021/08/28 11:32:30;;;;;;;5.38;1.40;;;;;;;;;;5036014;28;20038;-77
2021/08/28 11:34:57;;;;;;;1.77;1.10;;;;;;;;;;5041930;28;20501;-78
2021/08/28 11:37:24;;;;;;;1.70;1.00;;;;;;;;;;5037376;28;20118;-77
2021/08/28 11:39:50;;;;;;;2.60;0.88;;;;;;;;;;5027578;28;20634;-75
2021/08/28 11:42:17;;;;;;;2.72;1.20;;;;;;;;;;5006974;28;20610;-76
2021/08/28 11:44:53;;;;;;;2.08;1.05;;;;;;;;;;5010341;28;20057;-75
2021/08/28 11:47:20;;;;;;;1.27;0.80;;;;;;;;;;5005540;28;20116;-75
2021/08/28 11:49:50;;;;;;;3.30;0.95;;;;;;;;;;5011552;28;20665;-76
2021/08/28 11:52:17;;;;;;;2.78;1.40;;;;;;;;;;5021565;28;21271;-77
2021/08/28 11:54:45;;;;;;;2.80;1.10;;;;;;;;;;5019592;28;20053;-77
2021/08/28 11:57:11;;;;;;;1.95;1.10;;;;;;;;;;5019411;28;20124;-77
2021/08/28 11:59:41;;;;;;;1.52;0.90;;;;;;;;;;5008014;28;20095;-77
2021/08/28 12:02:08;;;;;;;2.55;1.17;;;;;;;;;;5023688;28;20077;-76
2021/08/28 12:04:37;;;;;;;1.83;1.00;;;;;;;;;;5024790;28;20068;-75
2021/08/28 12:07:05;;;;;;;1.48;1.00;;;;;;;;;;5013527;28;20068;-77
2021/08/28 12:09:32;;;;;;;2.67;1.73;;;;;;;;;;5019242;28;20061;-75
2021/08/28 12:11:59;;;;;;;2.08;1.15;;;;;;;;;;5007785;28;20053;-77
2021/08/28 12:14:26;;;;;;;2.47;0.90;;;;;;;;;;5029002;28;20053;-77
2021/08/28 12:16:53;;;;;;;2.67;1.10;;;;;;;;;;5004847;28;20119;-77
2021/08/28 12:19:21;;;;;;;2.67;1.10;;;;;;;;;;5024652;28;20111;-76
2021/08/28 12:21:49;;;;;;;1.70;1.00;;;;;;;;;;5025441;28;20512;-76
2021/08/28 12:24:23;;;;;;;3.63;1.00;;;;;;;;;;5022868;28;21473;-76
2021/08/28 12:26:51;;;;;;;1.73;0.90;;;;;;;;;;5019314;28;20138;-78
2021/08/28 12:29:28;;;;;;;1.60;1.00;;;;;;;;;;5017540;28;20037;-77
2021/08/28 12:32:01;;;;;;;1.70;1.00;;;;;;;;;;5025647;28;20096;-78
2021/08/28 12:34:32;;;;;;;1.52;1.00;;;;;;;;;;5023946;28;20061;-77
2021/08/28 12:36:59;;;;;;;1.30;0.80;;;;;;;;;;5019551;28;20066;-77
2021/08/28 12:39:27;;;;;;;1.50;0.90;;;;;;;;;;5011495;28;20061;-76
2021/08/28 12:41:53;;;;;;;1.80;0.98;;;;;;;;;;5015883;28;20050;-77
2021/08/28 12:44:20;;;;;;;1.20;0.80;;;;;;;;;;5016622;28;20092;-77
2021/08/28 12:46:48;;;;;;;1.73;1.05;;;;;;;;;;5017224;28;20126;-76
2021/08/28 12:49:18;;;;;;;1.52;0.95;;;;;;;;;;5016975;28;21325;-77
2021/08/28 12:51:48;;;;;;;1.90;1.08;;;;;;;;;;5029335;28;20489;-76
2021/08/28 12:54:18;;;;;;;1.30;0.80;;;;;;;;;;5030478;28;20032;-76
2021/08/28 12:56:51;;;;;;;1.70;0.90;;;;;;;;;;5018931;28;20108;-75
2021/08/28 12:59:22;;;;;;;1.63;0.80;;;;;;;;;;5016367;28;20053;-75
2021/08/28 13:01:49;;;;;;;1.50;1.10;;;;;;;;;;5035991;28;20069;-76
2021/08/28 13:04:15;;;;;;;1.42;0.80;;;;;;;;;;5014082;28;21181;-76
2021/08/28 13:06:42;;;;;;;2.78;1.00;;;;;;;;;;5024567;28;20029;-76
2021/08/28 13:09:17;;;;;;;2.45;0.95;;;;;;;;;;5025373;28;20118;-77
2021/08/28 13:11:56;;;;;;;1.85;1.00;;;;;;;;;;5027493;28;20065;-75
2021/08/28 13:14:22;;;;;;;2.30;1.00;;;;;;;;;;5010041;28;20058;-76
2021/08/28 13:16:57;;;;;;;1.92;0.80;;;;;;;;;;5016670;28;20061;-76
2021/08/28 13:19:34;;;;;;;1.60;0.80;;;;;;;;;;5003128;28;22201;-76
2021/08/28 13:22:01;;;;;;;1.33;1.02;;;;;;;;;;5006745;28;20073;-77
2021/08/28 13:24:27;;;;;;;3.08;1.02;;;;;;;;;;5007625;28;20400;-76
2021/08/28 13:27:01;;;;;;;1.42;0.88;;;;;;;;;;5007996;28;20053;-76
2021/08/28 13:29:29;;;;;;;2.13;0.90;;;;;;;;;;5012264;28;20053;-77
2021/08/28 13:32:15;;;;;;;1.95;0.90;;;;;;;;;;4995201;28;20081;-76
2021/08/28 13:34:51;;;;;;;2.15;0.80;;;;;;;;;;4999737;28;20050;-76
2021/08/28 13:37:18;;;;;;;1.95;0.60;;;;;;;;;;4997445;28;21264;-76
2021/08/28 13:39:46;;;;;;;1.95;0.85;;;;;;;;;;5015310;28;20072;-76
2021/08/28 13:42:20;;;;;;;1.88;1.00;;;;;;;;;;5001579;28;20050;-76
2021/08/28 13:44:46;;;;;;;1.67;1.00;;;;;;;;;;4995481;28;20136;-77
2021/08/28 13:47:12;;;;;;;1.40;0.90;;;;;;;;;;4997813;28;20074;-77
2021/08/28 13:49:39;;;;;;;1.75;0.95;;;;;;;;;;4992958;28;20124;-76
2021/08/28 13:52:06;;;;;;;1.77;0.80;;;;;;;;;;5003845;28;20484;-77
2021/08/28 13:54:32;;;;;;;2.08;0.90;;;;;;;;;;4994754;28;20494;-76
2021/08/28 13:56:58;;;;;;;1.48;0.90;;;;;;;;;;5005872;28;20061;-76
2021/08/28 13:59:25;;;;;;;1.80;1.00;;;;;;;;;;5020431;28;20504;-76
2021/08/28 14:01:51;;;;;;;1.67;0.70;;;;;;;;;;5016051;28;20100;-77
2021/08/28 14:04:18;;;;;;;1.83;1.00;;;;;;;;;;5023081;28;20072;-75
2021/08/28 14:06:44;;;;;;;1.73;0.82;;;;;;;;;;5016845;28;20512;-76
2021/08/28 14:09:10;;;;;;;1.52;0.93;;;;;;;;;;5024025;28;20130;-76
2021/08/28 14:11:37;;;;;;;1.05;0.70;;;;;;;;;;5036129;28;20072;-76
2021/08/28 14:14:03;;;;;;;1.77;1.10;;;;;;;;;;5026199;28;20518;-77
2021/08/28 14:16:30;;;;;;;2.00;0.77;;;;;;;;;;5019814;28;20029;-76
2021/08/28 14:18:56;;;;;;;1.55;0.95;;;;;;;;;;5028336;28;20060;-76
2021/08/28 14:21:22;;;;;;;1.33;0.80;;;;;;;;;;5032412;28;20057;-77
2021/08/28 14:23:51;;;;;;;1.30;0.85;;;;;;;;;;5024621;28;20387;-77
2021/08/28 14:26:17;;;;;;;1.23;0.75;;;;;;;;;;5023990;28;21292;-76
2021/08/28 14:28:44;;;;;;;1.63;0.90;;;;;;;;;;5027061;28;20110;-76
2021/08/28 14:31:10;;;;;;;1.67;1.00;;;;;;;;;;5024347;28;20064;-77
2021/08/28 14:33:37;;;;;;;1.60;0.98;;;;;;;;;;5025778;28;20069;-76
2021/08/28 14:36:03;;;;;;;1.40;0.80;;;;;;;;;;5020583;28;20041;-75
2021/08/28 14:38:30;;;;;;;1.70;0.80;;;;;;;;;;5027429;28;20552;-75
2021/08/28 14:40:56;;;;;;;1.55;0.90;;;;;;;;;;5020528;28;20070;-76
2021/08/28 14:43:23;;;;;;;1.98;0.90;;;;;;;;;;5030226;28;20042;-75
2021/08/28 14:45:49;;;;;;;0.95;0.68;;;;;;;;;;5018853;28;20072;-76
2021/08/28 14:48:15;;;;;;;1.38;0.80;;;;;;;;;;5015590;28;21319;-76